Terminal Aerodrome Forecast
Issued by NWS

Home | Current Version | Previous Version | Text Only | Print | Product List | Glossary On
Versions: 1 2 3 4 5 6 7 8 9 10 11 12 13 14 15 16 17 18 19 20 21
109
FTUS43 KILX 140530
TAFBMI
TAF
KBMI 140530Z 1406/1506 14008KT P6SM OVC100
     FM141000 14011KT P6SM SCT035 OVC060
      TEMPO 1410/1412 3SM -SN SCT025 OVC035
     FM141600 14015G23KT 1SM -SN BR SCT015 OVC020
      TEMPO 1417/1420 1/2SM SN FG SCT002 OVC006
     FM142000 14014KT 3SM -SN BR OVC007
     FM150400 16012KT 5SM BR OVC008=

USA.gov is the U.S. government's official web portal to all federal, state and local government web resources and services.